sensor_id;sensor_type;location;lat;lon;timestamp;P1;durP1;ratioP1;P2;durP2;ratioP2
40471;SDS011;26174;42.908;23.800;2023-11-21T00:01:01;37.03;;;12.45;;
40471;SDS011;26174;42.908;23.800;2023-11-21T00:03:29;25.35;;;12.38;;
40471;SDS011;26174;42.908;23.800;2023-11-21T00:05:55;24.73;;;12.02;;
40471;SDS011;26174;42.908;23.800;2023-11-21T00:08:21;31.05;;;12.82;;
40471;SDS011;26174;42.908;23.800;2023-11-21T00:10:46;30.77;;;13.90;;
40471;SDS011;26174;42.908;23.800;2023-11-21T00:13:13;48.30;;;19.85;;
40471;SDS011;26174;42.908;23.800;2023-11-21T00:15:38;35.42;;;17.58;;
40471;SDS011;26174;42.908;23.800;2023-11-21T00:18:04;33.03;;;15.75;;
40471;SDS011;26174;42.908;23.800;2023-11-21T00:20:30;44.45;;;18.40;;
40471;SDS011;26174;42.908;23.800;2023-11-21T00:22:55;38.88;;;16.15;;
40471;SDS011;26174;42.908;23.800;2023-11-21T00:25:21;42.05;;;17.23;;
40471;SDS011;26174;42.908;23.800;2023-11-21T00:27:47;51.05;;;18.83;;
40471;SDS011;26174;42.908;23.800;2023-11-21T00:30:13;37.72;;;17.20;;
40471;SDS011;26174;42.908;23.800;2023-11-21T00:32:39;38.78;;;16.05;;
40471;SDS011;26174;42.908;23.800;2023-11-21T00:35:05;43.85;;;18.05;;
40471;SDS011;26174;42.908;23.800;2023-11-21T00:37:31;40.60;;;18.27;;
40471;SDS011;26174;42.908;23.800;2023-11-21T00:39:57;40.25;;;17.98;;
40471;SDS011;26174;42.908;23.800;2023-11-21T00:42:23;47.38;;;17.92;;
40471;SDS011;26174;42.908;23.800;2023-11-21T00:44:48;35.22;;;15.25;;
40471;SDS011;26174;42.908;23.800;2023-11-21T00:47:14;25.42;;;12.10;;
40471;SDS011;26174;42.908;23.800;2023-11-21T00:49:39;26.98;;;11.55;;
40471;SDS011;26174;42.908;23.800;2023-11-21T00:52:06;21.60;;;11.27;;
40471;SDS011;26174;42.908;23.800;2023-11-21T00:54:32;26.90;;;10.00;;
40471;SDS011;26174;42.908;23.800;2023-11-21T00:56:58;28.20;;;13.40;;
40471;SDS011;26174;42.908;23.800;2023-11-21T00:59:23;40.45;;;18.48;;
40471;SDS011;26174;42.908;23.800;2023-11-21T01:01:49;27.05;;;13.52;;
40471;SDS011;26174;42.908;23.800;2023-11-21T01:04:15;29.13;;;11.43;;
40471;SDS011;26174;42.908;23.800;2023-11-21T01:06:40;23.45;;;12.20;;
40471;SDS011;26174;42.908;23.800;2023-11-21T01:09:06;28.83;;;13.73;;
40471;SDS011;26174;42.908;23.800;2023-11-21T01:11:34;26.85;;;12.68;;
40471;SDS011;26174;42.908;23.800;2023-11-21T01:14:02;28.95;;;13.30;;
40471;SDS011;26174;42.908;23.800;2023-11-21T01:16:28;35.72;;;17.42;;
40471;SDS011;26174;42.908;23.800;2023-11-21T01:18:54;42.95;;;17.13;;
40471;SDS011;26174;42.908;23.800;2023-11-21T01:21:20;47.65;;;20.92;;
40471;SDS011;26174;42.908;23.800;2023-11-21T01:23:45;44.13;;;20.92;;
40471;SDS011;26174;42.908;23.800;2023-11-21T01:26:13;52.25;;;22.65;;
40471;SDS011;26174;42.908;23.800;2023-11-21T01:28:38;43.03;;;20.40;;
40471;SDS011;26174;42.908;23.800;2023-11-21T01:31:04;45.80;;;19.15;;
40471;SDS011;26174;42.908;23.800;2023-11-21T01:33:29;47.78;;;21.02;;
40471;SDS011;26174;42.908;23.800;2023-11-21T01:35:55;44.53;;;20.77;;
40471;SDS011;26174;42.908;23.800;2023-11-21T01:38:21;45.03;;;20.17;;
40471;SDS011;26174;42.908;23.800;2023-11-21T01:40:47;43.83;;;20.13;;
40471;SDS011;26174;42.908;23.800;2023-11-21T01:43:13;53.92;;;21.90;;
40471;SDS011;26174;42.908;23.800;2023-11-21T01:45:38;46.97;;;20.65;;
40471;SDS011;26174;42.908;23.800;2023-11-21T01:48:04;51.10;;;21.55;;
40471;SDS011;26174;42.908;23.800;2023-11-21T01:50:31;53.58;;;24.73;;
40471;SDS011;26174;42.908;23.800;2023-11-21T01:52:58;49.85;;;22.55;;
40471;SDS011;26174;42.908;23.800;2023-11-21T01:55:25;47.22;;;22.17;;
40471;SDS011;26174;42.908;23.800;2023-11-21T01:57:52;47.30;;;21.23;;
40471;SDS011;26174;42.908;23.800;2023-11-21T02:00:18;43.90;;;21.20;;
40471;SDS011;26174;42.908;23.800;2023-11-21T02:02:47;43.67;;;19.85;;
40471;SDS011;26174;42.908;23.800;2023-11-21T02:05:17;46.95;;;21.48;;
40471;SDS011;26174;42.908;23.800;2023-11-21T02:07:43;48.80;;;20.08;;
40471;SDS011;26174;42.908;23.800;2023-11-21T02:10:10;38.10;;;18.17;;
40471;SDS011;26174;42.908;23.800;2023-11-21T02:12:39;36.83;;;17.95;;
40471;SDS011;26174;42.908;23.800;2023-11-21T02:15:05;36.25;;;18.00;;
40471;SDS011;26174;42.908;23.800;2023-11-21T02:17:40;40.03;;;17.73;;
40471;SDS011;26174;42.908;23.800;2023-11-21T02:20:16;36.17;;;16.90;;
40471;SDS011;26174;42.908;23.800;2023-11-21T02:22:43;32.05;;;14.73;;
40471;SDS011;26174;42.908;23.800;2023-11-21T02:25:09;31.98;;;14.18;;
40471;SDS011;26174;42.908;23.800;2023-11-21T02:27:35;32.47;;;14.85;;
40471;SDS011;26174;42.908;23.800;2023-11-21T02:30:01;29.55;;;13.45;;
40471;SDS011;26174;42.908;23.800;2023-11-21T02:32:29;28.25;;;13.70;;
40471;SDS011;26174;42.908;23.800;2023-11-21T02:34:56;29.00;;;13.35;;
40471;SDS011;26174;42.908;23.800;2023-11-21T02:37:26;25.35;;;11.52;;
40471;SDS011;26174;42.908;23.800;2023-11-21T02:39:51;26.73;;;11.95;;
40471;SDS011;26174;42.908;23.800;2023-11-21T02:42:17;28.20;;;12.52;;
40471;SDS011;26174;42.908;23.800;2023-11-21T02:44:43;25.48;;;12.77;;
40471;SDS011;26174;42.908;23.800;2023-11-21T02:47:09;31.05;;;13.27;;
40471;SDS011;26174;42.908;23.800;2023-11-21T02:49:35;28.05;;;11.98;;
40471;SDS011;26174;42.908;23.800;2023-11-21T02:52:01;28.90;;;12.60;;
40471;SDS011;26174;42.908;23.800;2023-11-21T02:54:26;24.40;;;11.27;;
40471;SDS011;26174;42.908;23.800;2023-11-21T02:56:52;22.25;;;10.68;;
40471;SDS011;26174;42.908;23.800;2023-11-21T02:59:18;22.30;;;9.90;;
40471;SDS011;26174;42.908;23.800;2023-11-21T03:01:44;27.83;;;11.18;;
40471;SDS011;26174;42.908;23.800;2023-11-21T03:04:11;17.73;;;8.98;;
40471;SDS011;26174;42.908;23.800;2023-11-21T03:06:42;18.30;;;8.63;;
40471;SDS011;26174;42.908;23.800;2023-11-21T03:09:08;24.00;;;9.95;;
40471;SDS011;26174;42.908;23.800;2023-11-21T03:11:34;20.90;;;10.45;;
40471;SDS011;26174;42.908;23.800;2023-11-21T03:13:59;25.75;;;11.55;;
40471;SDS011;26174;42.908;23.800;2023-11-21T03:16:25;23.88;;;10.93;;
40471;SDS011;26174;42.908;23.800;2023-11-21T03:18:51;30.48;;;13.80;;
40471;SDS011;26174;42.908;23.800;2023-11-21T03:21:17;38.10;;;15.82;;
40471;SDS011;26174;42.908;23.800;2023-11-21T03:23:43;37.63;;;14.50;;
40471;SDS011;26174;42.908;23.800;2023-11-21T03:26:11;34.00;;;13.75;;
40471;SDS011;26174;42.908;23.800;2023-11-21T03:28:37;36.75;;;14.02;;
40471;SDS011;26174;42.908;23.800;2023-11-21T03:31:03;33.38;;;13.48;;
40471;SDS011;26174;42.908;23.800;2023-11-21T03:33:29;113.57;;;47.05;;
40471;SDS011;26174;42.908;23.800;2023-11-21T03:35:54;30.90;;;14.35;;
40471;SDS011;26174;42.908;23.800;2023-11-21T03:38:20;38.85;;;16.58;;
40471;SDS011;26174;42.908;23.800;2023-11-21T03:40:45;34.10;;;15.75;;
40471;SDS011;26174;42.908;23.800;2023-11-21T03:43:12;32.67;;;16.13;;
40471;SDS011;26174;42.908;23.800;2023-11-21T03:45:38;34.45;;;16.40;;
40471;SDS011;26174;42.908;23.800;2023-11-21T03:48:06;36.95;;;17.65;;
40471;SDS011;26174;42.908;23.800;2023-11-21T03:50:32;26.80;;;13.75;;
40471;SDS011;26174;42.908;23.800;2023-11-21T03:52:57;35.97;;;14.70;;
40471;SDS011;26174;42.908;23.800;2023-11-21T03:55:23;35.15;;;16.05;;
40471;SDS011;26174;42.908;23.800;2023-11-21T03:57:50;41.15;;;16.88;;
40471;SDS011;26174;42.908;23.800;2023-11-21T04:00:16;40.80;;;17.90;;
40471;SDS011;26174;42.908;23.800;2023-11-21T04:02:42;41.83;;;18.98;;
40471;SDS011;26174;42.908;23.800;2023-11-21T04:05:08;46.70;;;19.88;;
40471;SDS011;26174;42.908;23.800;2023-11-21T04:07:34;61.53;;;23.85;;
40471;SDS011;26174;42.908;23.800;2023-11-21T04:10:00;49.85;;;18.08;;
40471;SDS011;26174;42.908;23.800;2023-11-21T04:12:26;54.47;;;19.08;;
40471;SDS011;26174;42.908;23.800;2023-11-21T04:14:51;47.85;;;17.42;;
40471;SDS011;26174;42.908;23.800;2023-11-21T04:17:20;38.65;;;15.48;;
40471;SDS011;26174;42.908;23.800;2023-11-21T04:19:46;35.65;;;15.73;;
40471;SDS011;26174;42.908;23.800;2023-11-21T04:22:12;40.20;;;15.27;;
40471;SDS011;26174;42.908;23.800;2023-11-21T04:24:37;32.30;;;13.00;;
40471;SDS011;26174;42.908;23.800;2023-11-21T04:27:03;45.08;;;16.27;;
40471;SDS011;26174;42.908;23.800;2023-11-21T04:29:29;33.22;;;14.95;;
40471;SDS011;26174;42.908;23.800;2023-11-21T04:31:55;27.88;;;12.10;;
40471;SDS011;26174;42.908;23.800;2023-11-21T04:34:20;32.08;;;11.27;;
40471;SDS011;26174;42.908;23.800;2023-11-21T04:36:46;24.88;;;10.57;;
40471;SDS011;26174;42.908;23.800;2023-11-21T04:39:11;33.17;;;11.35;;
40471;SDS011;26174;42.908;23.800;2023-11-21T04:41:37;30.70;;;12.32;;
40471;SDS011;26174;42.908;23.800;2023-11-21T04:44:05;30.75;;;12.95;;
40471;SDS011;26174;42.908;23.800;2023-11-21T04:46:31;35.08;;;13.88;;
40471;SDS011;26174;42.908;23.800;2023-11-21T04:48:57;41.53;;;16.15;;
40471;SDS011;26174;42.908;23.800;2023-11-21T04:51:23;38.97;;;15.57;;
40471;SDS011;26174;42.908;23.800;2023-11-21T04:53:49;35.75;;;11.85;;
40471;SDS011;26174;42.908;23.800;2023-11-21T04:56:14;41.92;;;15.27;;
40471;SDS011;26174;42.908;23.800;2023-11-21T04:58:41;50.78;;;17.27;;
40471;SDS011;26174;42.908;23.800;2023-11-21T05:01:07;41.47;;;16.98;;
40471;SDS011;26174;42.908;23.800;2023-11-21T05:03:33;44.13;;;18.67;;
40471;SDS011;26174;42.908;23.800;2023-11-21T05:05:59;36.85;;;15.80;;
40471;SDS011;26174;42.908;23.800;2023-11-21T05:08:25;49.67;;;17.38;;
40471;SDS011;26174;42.908;23.800;2023-11-21T05:10:51;44.38;;;20.45;;
40471;SDS011;26174;42.908;23.800;2023-11-21T05:13:17;54.97;;;21.95;;
40471;SDS011;26174;42.908;23.800;2023-11-21T05:15:44;65.85;;;23.25;;
40471;SDS011;26174;42.908;23.800;2023-11-21T05:18:09;66.05;;;22.85;;
40471;SDS011;26174;42.908;23.800;2023-11-21T05:20:35;59.08;;;25.02;;
40471;SDS011;26174;42.908;23.800;2023-11-21T05:23:03;59.38;;;26.80;;
40471;SDS011;26174;42.908;23.800;2023-11-21T05:25:28;59.90;;;25.48;;
40471;SDS011;26174;42.908;23.800;2023-11-21T05:27:54;57.58;;;24.80;;
40471;SDS011;26174;42.908;23.800;2023-11-21T05:30:20;66.20;;;25.90;;
40471;SDS011;26174;42.908;23.800;2023-11-21T05:32:46;45.72;;;22.55;;
40471;SDS011;26174;42.908;23.800;2023-11-21T05:35:12;50.78;;;22.52;;
40471;SDS011;26174;42.908;23.800;2023-11-21T05:37:41;47.33;;;20.08;;
40471;SDS011;26174;42.908;23.800;2023-11-21T05:40:07;47.20;;;19.10;;
40471;SDS011;26174;42.908;23.800;2023-11-21T05:42:33;37.22;;;18.65;;
40471;SDS011;26174;42.908;23.800;2023-11-21T05:44:59;40.25;;;18.90;;
40471;SDS011;26174;42.908;23.800;2023-11-21T05:47:35;40.45;;;19.02;;
40471;SDS011;26174;42.908;23.800;2023-11-21T05:50:02;50.40;;;19.67;;
40471;SDS011;26174;42.908;23.800;2023-11-21T05:52:27;49.58;;;23.15;;
40471;SDS011;26174;42.908;23.800;2023-11-21T05:54:53;53.65;;;22.38;;
40471;SDS011;26174;42.908;23.800;2023-11-21T05:57:18;51.15;;;21.42;;
40471;SDS011;26174;42.908;23.800;2023-11-21T05:59:44;53.65;;;22.20;;
40471;SDS011;26174;42.908;23.800;2023-11-21T06:02:11;51.90;;;20.52;;
40471;SDS011;26174;42.908;23.800;2023-11-21T06:04:36;46.20;;;19.10;;
40471;SDS011;26174;42.908;23.800;2023-11-21T06:07:02;38.83;;;17.45;;
40471;SDS011;26174;42.908;23.800;2023-11-21T06:09:28;58.42;;;20.63;;
40471;SDS011;26174;42.908;23.800;2023-11-21T06:11:53;62.70;;;25.15;;
40471;SDS011;26174;42.908;23.800;2023-11-21T06:14:19;76.70;;;28.55;;
40471;SDS011;26174;42.908;23.800;2023-11-21T06:16:44;48.17;;;20.77;;
40471;SDS011;26174;42.908;23.800;2023-11-21T06:19:10;58.05;;;23.08;;
40471;SDS011;26174;42.908;23.800;2023-11-21T06:21:36;74.63;;;25.88;;
40471;SDS011;26174;42.908;23.800;2023-11-21T06:24:02;80.63;;;27.65;;
40471;SDS011;26174;42.908;23.800;2023-11-21T06:26:27;43.40;;;20.30;;
40471;SDS011;26174;42.908;23.800;2023-11-21T06:28:53;45.42;;;19.88;;
40471;SDS011;26174;42.908;23.800;2023-11-21T06:31:19;36.97;;;19.48;;
40471;SDS011;26174;42.908;23.800;2023-11-21T06:33:44;58.58;;;22.40;;
40471;SDS011;26174;42.908;23.800;2023-11-21T06:36:10;53.42;;;22.00;;
40471;SDS011;26174;42.908;23.800;2023-11-21T06:38:38;54.50;;;23.20;;
40471;SDS011;26174;42.908;23.800;2023-11-21T06:41:04;48.90;;;21.90;;
40471;SDS011;26174;42.908;23.800;2023-11-21T06:43:31;56.55;;;22.30;;
40471;SDS011;26174;42.908;23.800;2023-11-21T06:45:56;44.42;;;21.42;;
40471;SDS011;26174;42.908;23.800;2023-11-21T06:48:22;42.88;;;21.48;;
40471;SDS011;26174;42.908;23.800;2023-11-21T06:50:48;43.67;;;19.85;;
40471;SDS011;26174;42.908;23.800;2023-11-21T06:53:13;71.03;;;28.40;;
40471;SDS011;26174;42.908;23.800;2023-11-21T06:55:39;75.63;;;32.17;;
40471;SDS011;26174;42.908;23.800;2023-11-21T06:58:05;45.63;;;18.02;;
40471;SDS011;26174;42.908;23.800;2023-11-21T07:00:30;44.65;;;18.33;;
40471;SDS011;26174;42.908;23.800;2023-11-21T07:02:56;35.92;;;18.38;;
40471;SDS011;26174;42.908;23.800;2023-11-21T07:05:22;49.15;;;21.38;;
40471;SDS011;26174;42.908;23.800;2023-11-21T07:07:48;53.78;;;24.90;;
40471;SDS011;26174;42.908;23.800;2023-11-21T07:10:14;37.00;;;19.42;;
40471;SDS011;26174;42.908;23.800;2023-11-21T07:12:39;53.25;;;25.20;;
40471;SDS011;26174;42.908;23.800;2023-11-21T07:15:05;84.60;;;34.90;;
40471;SDS011;26174;42.908;23.800;2023-11-21T07:17:34;62.75;;;26.55;;
40471;SDS011;26174;42.908;23.800;2023-11-21T07:20:01;46.10;;;20.63;;
40471;SDS011;26174;42.908;23.800;2023-11-21T07:22:27;32.05;;;15.23;;
40471;SDS011;26174;42.908;23.800;2023-11-21T07:24:52;44.60;;;16.35;;
40471;SDS011;26174;42.908;23.800;2023-11-21T07:27:18;34.22;;;16.08;;
40471;SDS011;26174;42.908;23.800;2023-11-21T07:29:44;38.50;;;17.75;;
40471;SDS011;26174;42.908;23.800;2023-11-21T07:32:09;52.03;;;24.02;;
40471;SDS011;26174;42.908;23.800;2023-11-21T07:34:35;61.85;;;30.02;;
40471;SDS011;26174;42.908;23.800;2023-11-21T07:37:02;57.65;;;29.88;;
40471;SDS011;26174;42.908;23.800;2023-11-21T07:39:28;84.05;;;35.67;;
40471;SDS011;26174;42.908;23.800;2023-11-21T07:41:53;88.65;;;38.47;;
40471;SDS011;26174;42.908;23.800;2023-11-21T07:44:19;110.90;;;45.55;;
40471;SDS011;26174;42.908;23.800;2023-11-21T07:46:45;85.20;;;39.03;;
40471;SDS011;26174;42.908;23.800;2023-11-21T07:49:11;63.17;;;32.38;;
40471;SDS011;26174;42.908;23.800;2023-11-21T07:51:41;40.53;;;23.58;;
40471;SDS011;26174;42.908;23.800;2023-11-21T07:54:07;42.58;;;23.23;;
40471;SDS011;26174;42.908;23.800;2023-11-21T07:56:32;84.32;;;39.33;;
40471;SDS011;26174;42.908;23.800;2023-11-21T07:58:58;57.70;;;26.20;;
40471;SDS011;26174;42.908;23.800;2023-11-21T08:01:23;38.90;;;18.88;;
40471;SDS011;26174;42.908;23.800;2023-11-21T08:03:50;37.28;;;19.20;;
40471;SDS011;26174;42.908;23.800;2023-11-21T08:06:17;30.55;;;15.75;;
40471;SDS011;26174;42.908;23.800;2023-11-21T08:08:42;28.75;;;17.55;;
40471;SDS011;26174;42.908;23.800;2023-11-21T08:11:08;34.15;;;16.75;;
40471;SDS011;26174;42.908;23.800;2023-11-21T08:13:35;32.80;;;17.67;;
40471;SDS011;26174;42.908;23.800;2023-11-21T08:16:01;40.75;;;18.05;;
40471;SDS011;26174;42.908;23.800;2023-11-21T08:18:28;39.35;;;17.95;;
40471;SDS011;26174;42.908;23.800;2023-11-21T08:20:55;38.78;;;19.63;;
40471;SDS011;26174;42.908;23.800;2023-11-21T08:23:21;32.15;;;17.27;;
40471;SDS011;26174;42.908;23.800;2023-11-21T08:25:50;35.63;;;17.45;;
40471;SDS011;26174;42.908;23.800;2023-11-21T08:28:16;38.22;;;18.52;;
40471;SDS011;26174;42.908;23.800;2023-11-21T08:30:42;35.85;;;17.98;;
40471;SDS011;26174;42.908;23.800;2023-11-21T08:33:08;34.90;;;17.42;;
40471;SDS011;26174;42.908;23.800;2023-11-21T08:35:34;34.25;;;17.17;;
40471;SDS011;26174;42.908;23.800;2023-11-21T08:37:59;33.08;;;17.05;;
40471;SDS011;26174;42.908;23.800;2023-11-21T08:40:25;48.42;;;19.17;;
40471;SDS011;26174;42.908;23.800;2023-11-21T08:42:51;35.03;;;15.13;;
40471;SDS011;26174;42.908;23.800;2023-11-21T08:45:20;22.98;;;12.23;;
40471;SDS011;26174;42.908;23.800;2023-11-21T08:47:47;13.25;;;6.68;;
40471;SDS011;26174;42.908;23.800;2023-11-21T08:50:12;20.08;;;9.40;;
40471;SDS011;26174;42.908;23.800;2023-11-21T08:52:38;23.52;;;10.10;;
40471;SDS011;26174;42.908;23.800;2023-11-21T08:55:05;17.65;;;10.30;;
40471;SDS011;26174;42.908;23.800;2023-11-21T08:57:40;29.48;;;13.60;;
40471;SDS011;26174;42.908;23.800;2023-11-21T09:00:08;27.20;;;14.52;;
40471;SDS011;26174;42.908;23.800;2023-11-21T09:02:38;25.10;;;13.82;;
40471;SDS011;26174;42.908;23.800;2023-11-21T09:05:04;27.33;;;14.85;;
40471;SDS011;26174;42.908;23.800;2023-11-21T09:07:30;34.60;;;16.95;;
40471;SDS011;26174;42.908;23.800;2023-11-21T09:09:56;29.77;;;16.80;;
40471;SDS011;26174;42.908;23.800;2023-11-21T09:12:21;37.65;;;16.85;;
40471;SDS011;26174;42.908;23.800;2023-11-21T09:14:47;28.33;;;14.57;;
40471;SDS011;26174;42.908;23.800;2023-11-21T09:17:13;34.97;;;15.70;;
40471;SDS011;26174;42.908;23.800;2023-11-21T09:19:39;22.58;;;13.10;;
40471;SDS011;26174;42.908;23.800;2023-11-21T09:22:05;31.40;;;12.13;;
40471;SDS011;26174;42.908;23.800;2023-11-21T09:24:32;22.58;;;11.93;;
40471;SDS011;26174;42.908;23.800;2023-11-21T09:26:58;27.83;;;13.68;;
40471;SDS011;26174;42.908;23.800;2023-11-21T09:29:25;36.83;;;13.70;;
40471;SDS011;26174;42.908;23.800;2023-11-21T09:31:51;22.92;;;14.07;;
40471;SDS011;26174;42.908;23.800;2023-11-21T09:34:17;30.60;;;15.32;;
40471;SDS011;26174;42.908;23.800;2023-11-21T09:36:46;35.85;;;17.50;;
40471;SDS011;26174;42.908;23.800;2023-11-21T09:39:12;43.20;;;19.65;;
40471;SDS011;26174;42.908;23.800;2023-11-21T09:44:09;34.53;;;16.00;;
40471;SDS011;26174;42.908;23.800;2023-11-21T09:46:39;52.08;;;21.10;;
40471;SDS011;26174;42.908;23.800;2023-11-21T09:49:08;31.85;;;13.25;;
40471;SDS011;26174;42.908;23.800;2023-11-21T09:51:39;25.90;;;11.15;;
40471;SDS011;26174;42.908;23.800;2023-11-21T09:54:06;16.45;;;7.22;;
40471;SDS011;26174;42.908;23.800;2023-11-21T09:56:32;14.80;;;6.85;;
40471;SDS011;26174;42.908;23.800;2023-11-21T09:58:58;10.70;;;5.03;;
40471;SDS011;26174;42.908;23.800;2023-11-21T10:01:29;7.97;;;4.85;;
40471;SDS011;26174;42.908;23.800;2023-11-21T10:03:57;10.10;;;5.15;;
40471;SDS011;26174;42.908;23.800;2023-11-21T10:06:22;12.93;;;5.03;;
40471;SDS011;26174;42.908;23.800;2023-11-21T10:08:50;13.38;;;6.70;;
40471;SDS011;26174;42.908;23.800;2023-11-21T10:11:16;17.20;;;5.15;;
40471;SDS011;26174;42.908;23.800;2023-11-21T10:13:43;11.18;;;5.28;;
40471;SDS011;26174;42.908;23.800;2023-11-21T10:16:11;12.43;;;5.43;;
40471;SDS011;26174;42.908;23.800;2023-11-21T10:18:41;12.55;;;4.50;;
40471;SDS011;26174;42.908;23.800;2023-11-21T10:21:07;10.32;;;5.00;;
40471;SDS011;26174;42.908;23.800;2023-11-21T10:23:34;9.68;;;4.95;;
40471;SDS011;26174;42.908;23.800;2023-11-21T10:25:59;8.95;;;3.58;;
40471;SDS011;26174;42.908;23.800;2023-11-21T10:28:26;8.07;;;3.13;;
40471;SDS011;26174;42.908;23.800;2023-11-21T10:30:52;7.97;;;3.60;;
40471;SDS011;26174;42.908;23.800;2023-11-21T10:33:17;8.60;;;3.80;;
40471;SDS011;26174;42.908;23.800;2023-11-21T10:35:52;6.47;;;4.10;;
40471;SDS011;26174;42.908;23.800;2023-11-21T10:38:20;8.30;;;4.60;;
40471;SDS011;26174;42.908;23.800;2023-11-21T10:40:48;7.65;;;4.50;;
40471;SDS011;26174;42.908;23.800;2023-11-21T10:43:14;7.85;;;4.20;;
40471;SDS011;26174;42.908;23.800;2023-11-21T10:45:40;7.80;;;3.60;;
40471;SDS011;26174;42.908;23.800;2023-11-21T10:48:07;8.35;;;4.55;;
40471;SDS011;26174;42.908;23.800;2023-11-21T10:50:34;4.75;;;2.80;;
40471;SDS011;26174;42.908;23.800;2023-11-21T10:53:01;3.20;;;1.95;;
40471;SDS011;26174;42.908;23.800;2023-11-21T10:55:29;8.73;;;4.43;;
40471;SDS011;26174;42.908;23.800;2023-11-21T10:57:57;5.07;;;3.20;;
40471;SDS011;26174;42.908;23.800;2023-11-21T11:00:24;6.03;;;3.78;;
40471;SDS011;26174;42.908;23.800;2023-11-21T11:02:52;6.72;;;3.03;;
40471;SDS011;26174;42.908;23.800;2023-11-21T11:05:22;7.78;;;2.90;;
40471;SDS011;26174;42.908;23.800;2023-11-21T11:07:52;2.80;;;1.80;;
40471;SDS011;26174;42.908;23.800;2023-11-21T11:10:26;4.55;;;1.80;;
40471;SDS011;26174;42.908;23.800;2023-11-21T11:12:54;1.67;;;1.13;;
40471;SDS011;26174;42.908;23.800;2023-11-21T11:15:20;6.28;;;1.52;;
40471;SDS011;26174;42.908;23.800;2023-11-21T11:17:46;4.10;;;1.20;;
40471;SDS011;26174;42.908;23.800;2023-11-21T11:20:14;2.95;;;1.95;;
40471;SDS011;26174;42.908;23.800;2023-11-21T11:23:04;3.88;;;2.03;;
40471;SDS011;26174;42.908;23.800;2023-11-21T11:25:46;3.28;;;1.60;;
40471;SDS011;26174;42.908;23.800;2023-11-21T11:28:29;8.65;;;3.80;;
40471;SDS011;26174;42.908;23.800;2023-11-21T11:33:39;12.38;;;5.50;;
40471;SDS011;26174;42.908;23.800;2023-11-21T11:36:17;13.63;;;5.13;;
40471;SDS011;26174;42.908;23.800;2023-11-21T11:38:47;21.23;;;8.25;;
40471;SDS011;26174;42.908;23.800;2023-11-21T11:41:19;18.98;;;7.60;;
40471;SDS011;26174;42.908;23.800;2023-11-21T11:43:50;8.65;;;4.18;;
40471;SDS011;26174;42.908;23.800;2023-11-21T11:46:16;1.75;;;1.30;;
40471;SDS011;26174;42.908;23.800;2023-11-21T11:48:42;3.85;;;1.70;;
40471;SDS011;26174;42.908;23.800;2023-11-21T11:51:14;4.28;;;2.75;;
40471;SDS011;26174;42.908;23.800;2023-11-21T11:53:42;4.78;;;2.60;;
40471;SDS011;26174;42.908;23.800;2023-11-21T11:58:48;1.83;;;0.82;;
40471;SDS011;26174;42.908;23.800;2023-11-21T12:01:16;2.75;;;1.40;;
40471;SDS011;26174;42.908;23.800;2023-11-21T12:03:44;3.30;;;1.45;;
40471;SDS011;26174;42.908;23.800;2023-11-21T12:06:09;4.90;;;1.52;;
40471;SDS011;26174;42.908;23.800;2023-11-21T12:08:37;2.45;;;1.33;;
40471;SDS011;26174;42.908;23.800;2023-11-21T12:11:03;3.53;;;1.77;;
40471;SDS011;26174;42.908;23.800;2023-11-21T12:13:29;3.63;;;2.33;;
40471;SDS011;26174;42.908;23.800;2023-11-21T12:15:55;5.78;;;1.33;;
40471;SDS011;26174;42.908;23.800;2023-11-21T12:18:20;3.08;;;1.75;;
40471;SDS011;26174;42.908;23.800;2023-11-21T12:20:46;2.08;;;1.15;;
40471;SDS011;26174;42.908;23.800;2023-11-21T12:23:15;2.08;;;1.33;;
40471;SDS011;26174;42.908;23.800;2023-11-21T12:25:42;3.40;;;1.70;;
40471;SDS011;26174;42.908;23.800;2023-11-21T12:28:08;3.72;;;1.85;;
40471;SDS011;26174;42.908;23.800;2023-11-21T12:30:36;3.83;;;1.70;;
40471;SDS011;26174;42.908;23.800;2023-11-21T12:33:03;3.85;;;2.08;;
40471;SDS011;26174;42.908;23.800;2023-11-21T12:35:30;7.05;;;2.53;;
40471;SDS011;26174;42.908;23.800;2023-11-21T12:37:59;62.88;;;21.58;;
40471;SDS011;26174;42.908;23.800;2023-11-21T12:40:27;45.63;;;18.13;;
40471;SDS011;26174;42.908;23.800;2023-11-21T12:42:53;80.80;;;40.60;;
40471;SDS011;26174;42.908;23.800;2023-11-21T12:50:24;326.70;;;138.55;;
40471;SDS011;26174;42.908;23.800;2023-11-21T12:52:59;175.63;;;86.20;;
40471;SDS011;26174;42.908;23.800;2023-11-21T12:55:32;9.48;;;4.93;;
40471;SDS011;26174;42.908;23.800;2023-11-21T12:57:59;5.80;;;2.63;;
40471;SDS011;26174;42.908;23.800;2023-11-21T13:00:35;2.25;;;1.50;;
40471;SDS011;26174;42.908;23.800;2023-11-21T13:03:05;4.95;;;2.35;;
40471;SDS011;26174;42.908;23.800;2023-11-21T13:05:33;4.03;;;2.42;;
40471;SDS011;26174;42.908;23.800;2023-11-21T13:08:02;4.88;;;2.40;;
40471;SDS011;26174;42.908;23.800;2023-11-21T13:10:29;10.13;;;3.95;;
40471;SDS011;26174;42.908;23.800;2023-11-21T13:12:59;5.35;;;3.08;;
40471;SDS011;26174;42.908;23.800;2023-11-21T13:15:26;8.52;;;3.47;;
40471;SDS011;26174;42.908;23.800;2023-11-21T13:17:53;4.75;;;2.42;;
40471;SDS011;26174;42.908;23.800;2023-11-21T13:20:19;4.70;;;2.90;;
40471;SDS011;26174;42.908;23.800;2023-11-21T13:22:49;8.52;;;3.80;;
40471;SDS011;26174;42.908;23.800;2023-11-21T13:25:17;10.27;;;3.92;;
40471;SDS011;26174;42.908;23.800;2023-11-21T13:27:45;4.25;;;2.20;;
40471;SDS011;26174;42.908;23.800;2023-11-21T13:30:11;6.40;;;3.03;;
40471;SDS011;26174;42.908;23.800;2023-11-21T13:32:43;5.13;;;2.50;;
40471;SDS011;26174;42.908;23.800;2023-11-21T13:35:11;5.60;;;3.00;;
40471;SDS011;26174;42.908;23.800;2023-11-21T13:37:49;11.93;;;4.53;;
40471;SDS011;26174;42.908;23.800;2023-11-21T13:40:19;10.68;;;4.63;;
40471;SDS011;26174;42.908;23.800;2023-11-21T13:42:48;11.02;;;4.60;;
40471;SDS011;26174;42.908;23.800;2023-11-21T13:45:18;7.88;;;4.05;;
40471;SDS011;26174;42.908;23.800;2023-11-21T13:47:48;3.28;;;2.22;;
40471;SDS011;26174;42.908;23.800;2023-11-21T13:50:18;6.15;;;2.50;;
40471;SDS011;26174;42.908;23.800;2023-11-21T13:52:48;13.38;;;5.45;;
40471;SDS011;26174;42.908;23.800;2023-11-21T13:55:18;15.63;;;8.27;;
40471;SDS011;26174;42.908;23.800;2023-11-21T13:57:44;72.95;;;29.25;;
40471;SDS011;26174;42.908;23.800;2023-11-21T14:00:14;60.05;;;18.60;;
40471;SDS011;26174;42.908;23.800;2023-11-21T14:03:03;108.85;;;41.00;;
40471;SDS011;26174;42.908;23.800;2023-11-21T14:05:33;185.55;;;67.43;;
40471;SDS011;26174;42.908;23.800;2023-11-21T14:07:59;41.42;;;17.50;;
40471;SDS011;26174;42.908;23.800;2023-11-21T14:10:32;23.80;;;9.63;;
40471;SDS011;26174;42.908;23.800;2023-11-21T14:13:05;58.95;;;27.50;;
40471;SDS011;26174;42.908;23.800;2023-11-21T14:15:31;21.70;;;11.27;;
40471;SDS011;26174;42.908;23.800;2023-11-21T14:18:02;12.63;;;4.63;;
40471;SDS011;26174;42.908;23.800;2023-11-21T14:20:32;16.60;;;8.75;;
40471;SDS011;26174;42.908;23.800;2023-11-21T14:22:58;16.70;;;9.00;;
40471;SDS011;26174;42.908;23.800;2023-11-21T14:25:24;10.07;;;5.85;;